Time;durP1;ratioP1;P1;durP2;ratioP2;P2;SDS_P1;SDS_P2;PMS_P1;PMS_P2;Temp;Humidity;BMP_temperature;BMP_pressure;BME280_temperature;BME280_humidity;BME280_pressure;Samples;Min_cycle;Max_cycle;Signal;HPM_P1;HPM_P2
2021/07/22 00:01:29;;;;;;;14.70;13.15;;;;;;;;;;5102135;28;20378;-86
2021/07/22 00:03:55;;;;;;;16.05;13.30;;;;;;;;;;5080655;28;20383;-86
2021/07/22 00:06:21;;;;;;;18.95;14.40;;;;;;;;;;5080588;28;20379;-85
2021/07/22 00:08:47;;;;;;;20.23;14.32;;;;;;;;;;5089313;28;20879;-85
2021/07/22 00:11:13;;;;;;;15.52;13.82;;;;;;;;;;5092718;28;20370;-86
2021/07/22 00:13:39;;;;;;;15.57;13.47;;;;;;;;;;5110740;28;20385;-87
2021/07/22 00:16:05;;;;;;;17.60;14.47;;;;;;;;;;5092601;28;20359;-86
2021/07/22 00:18:33;;;;;;;19.48;14.30;;;;;;;;;;5092332;28;20431;-86
2021/07/22 00:20:59;;;;;;;20.65;14.60;;;;;;;;;;5092301;28;20891;-84
2021/07/22 00:23:25;;;;;;;15.10;13.60;;;;;;;;;;5092420;28;20377;-85
2021/07/22 00:25:51;;;;;;;16.90;14.38;;;;;;;;;;5092381;28;20406;-85
2021/07/22 00:28:18;;;;;;;15.35;13.77;;;;;;;;;;5092256;28;20367;-86
2021/07/22 00:30:44;;;;;;;17.83;13.45;;;;;;;;;;5092158;28;20386;-85
2021/07/22 00:33:11;;;;;;;17.83;14.20;;;;;;;;;;5092169;28;20473;-85
2021/07/22 00:35:37;;;;;;;16.02;13.57;;;;;;;;;;5092272;28;20379;-84
2021/07/22 00:38:03;;;;;;;15.65;13.60;;;;;;;;;;5092028;28;20373;-85
2021/07/22 00:40:29;;;;;;;15.10;13.32;;;;;;;;;;5092362;28;20482;-85
2021/07/22 00:43:02;;;;;;;16.95;14.02;;;;;;;;;;5110480;28;20366;-86
2021/07/22 00:45:29;;;;;;;17.37;14.13;;;;;;;;;;5092271;28;20461;-86
2021/07/22 00:47:56;;;;;;;16.38;14.52;;;;;;;;;;5110531;28;20370;-87
2021/07/22 00:50:22;;;;;;;17.35;14.45;;;;;;;;;;5095697;28;20411;-86
2021/07/22 00:52:49;;;;;;;17.27;14.00;;;;;;;;;;5114459;28;20740;-86
2021/07/22 00:55:18;;;;;;;18.17;14.50;;;;;;;;;;5096179;28;20393;-86
2021/07/22 00:57:45;;;;;;;15.80;14.07;;;;;;;;;;5095912;28;20408;-87
2021/07/22 01:00:11;;;;;;;15.27;12.95;;;;;;;;;;5095803;28;20406;-85
2021/07/22 01:02:37;;;;;;;16.20;14.13;;;;;;;;;;5096098;28;20454;-85
2021/07/22 01:05:03;;;;;;;16.70;14.10;;;;;;;;;;5095979;28;20381;-85
2021/07/22 01:07:29;;;;;;;16.00;14.30;;;;;;;;;;5114150;28;20453;-89
2021/07/22 01:09:55;;;;;;;16.05;13.57;;;;;;;;;;5095654;28;20944;-86
2021/07/22 01:12:21;;;;;;;15.70;13.57;;;;;;;;;;5095986;28;20720;-86
2021/07/22 01:14:47;;;;;;;15.35;13.57;;;;;;;;;;5095627;28;20728;-85
2021/07/22 01:17:42;;;;;;;16.98;15.07;;;;;;;;;;5095825;28;20469;-87
2021/07/22 01:20:12;;;;;;;16.25;14.27;;;;;;;;;;5072921;28;20587;-87
2021/07/22 01:22:38;;;;;;;17.42;14.40;;;;;;;;;;5114097;28;20385;-85
2021/07/22 01:25:05;;;;;;;15.38;13.77;;;;;;;;;;5114135;28;20363;-86
2021/07/22 01:27:31;;;;;;;17.63;14.03;;;;;;;;;;5095457;28;20375;-85
2021/07/22 01:29:57;;;;;;;16.67;13.85;;;;;;;;;;5113485;28;20395;-87
2021/07/22 01:32:23;;;;;;;17.23;14.80;;;;;;;;;;5095616;28;20399;-86
2021/07/22 01:34:49;;;;;;;16.13;14.45;;;;;;;;;;5095155;28;20366;-85
2021/07/22 01:37:15;;;;;;;18.95;15.20;;;;;;;;;;5113776;28;20852;-85
2021/07/22 01:39:41;;;;;;;21.08;16.48;;;;;;;;;;5095364;28;20422;-85
2021/07/22 01:42:07;;;;;;;16.63;14.85;;;;;;;;;;5095288;28;20375;-85
2021/07/22 01:44:33;;;;;;;17.30;15.13;;;;;;;;;;5096059;28;20746;-85
2021/07/22 01:46:59;;;;;;;17.77;14.57;;;;;;;;;;5117162;28;20366;-85
2021/07/22 01:49:25;;;;;;;15.73;14.13;;;;;;;;;;5099267;28;20767;-85
2021/07/22 01:51:51;;;;;;;18.33;14.35;;;;;;;;;;5098925;28;20398;-86
2021/07/22 01:54:17;;;;;;;15.27;13.70;;;;;;;;;;5096258;28;20414;-86
2021/07/22 01:56:43;;;;;;;19.00;15.30;;;;;;;;;;5112817;28;20391;-85
2021/07/22 01:59:09;;;;;;;15.95;14.27;;;;;;;;;;5094360;28;20369;-85
2021/07/22 02:01:35;;;;;;;20.10;14.57;;;;;;;;;;5094786;28;20378;-86
2021/07/22 02:04:01;;;;;;;18.50;15.10;;;;;;;;;;5094927;28;20473;-85
2021/07/22 02:06:27;;;;;;;16.83;15.03;;;;;;;;;;5095368;28;20370;-85
2021/07/22 02:08:53;;;;;;;15.87;14.17;;;;;;;;;;5095151;28;20885;-86
2021/07/22 02:11:19;;;;;;;15.75;14.05;;;;;;;;;;5113026;28;20492;-86
2021/07/22 02:13:45;;;;;;;20.02;14.45;;;;;;;;;;5094575;28;20860;-87
2021/07/22 02:16:11;;;;;;;17.40;14.05;;;;;;;;;;5095243;28;20418;-87
2021/07/22 02:18:37;;;;;;;16.47;14.33;;;;;;;;;;5095210;28;20424;-87
2021/07/22 02:21:06;;;;;;;15.27;13.68;;;;;;;;;;5095459;28;20895;-84
2021/07/22 02:23:33;;;;;;;16.47;14.13;;;;;;;;;;5095354;28;20883;-87
2021/07/22 02:25:59;;;;;;;16.70;13.98;;;;;;;;;;5095494;28;20378;-88
2021/07/22 02:28:25;;;;;;;15.65;13.95;;;;;;;;;;5095704;28;20379;-88
2021/07/22 02:30:51;;;;;;;16.80;14.83;;;;;;;;;;5095226;28;20618;-85
2021/07/22 02:33:17;;;;;;;15.57;13.83;;;;;;;;;;5095342;28;20386;-88
2021/07/22 02:35:43;;;;;;;19.00;14.80;;;;;;;;;;5095725;28;20439;-87
2021/07/22 02:38:09;;;;;;;18.73;14.13;;;;;;;;;;5096583;28;20915;-88
2021/07/22 02:40:35;;;;;;;16.48;13.93;;;;;;;;;;5095984;28;20486;-86
2021/07/22 02:43:01;;;;;;;15.90;14.07;;;;;;;;;;5096512;28;20408;-86
2021/07/22 02:45:27;;;;;;;16.80;14.10;;;;;;;;;;5096666;28;20359;-90
2021/07/22 02:47:53;;;;;;;40.80;16.00;;;;;;;;;;5114093;28;20736;-86
2021/07/22 02:50:19;;;;;;;29.75;14.98;;;;;;;;;;5096664;28;20379;-86
2021/07/22 02:52:45;;;;;;;31.67;15.80;;;;;;;;;;5096483;28;20375;-86
2021/07/22 02:55:11;;;;;;;21.70;14.57;;;;;;;;;;5096852;28;20367;-90
2021/07/22 02:57:37;;;;;;;24.90;15.13;;;;;;;;;;5116205;28;20378;-86
2021/07/22 03:00:03;;;;;;;22.25;15.15;;;;;;;;;;5096902;28;20466;-86
2021/07/22 03:02:29;;;;;;;21.30;15.90;;;;;;;;;;5099591;28;20363;-90
2021/07/22 03:04:55;;;;;;;22.92;15.77;;;;;;;;;;5099794;28;20379;-89
2021/07/22 03:07:21;;;;;;;22.30;16.38;;;;;;;;;;5116968;28;20354;-88
2021/07/22 03:09:47;;;;;;;24.25;16.33;;;;;;;;;;5097830;28;20380;-88
2021/07/22 03:12:14;;;;;;;21.20;15.43;;;;;;;;;;5097348;28;20454;-87
2021/07/22 03:14:40;;;;;;;18.48;15.30;;;;;;;;;;5097712;28;20367;-85
2021/07/22 03:17:06;;;;;;;17.95;14.40;;;;;;;;;;5096666;28;20382;-88
2021/07/22 03:19:32;;;;;;;17.47;14.53;;;;;;;;;;5096709;28;20393;-89
2021/07/22 03:21:58;;;;;;;19.50;14.70;;;;;;;;;;5096950;28;20890;-88
2021/07/22 03:24:25;;;;;;;16.37;14.20;;;;;;;;;;5114061;28;20366;-92
2021/07/22 03:26:51;;;;;;;18.65;14.18;;;;;;;;;;5095624;28;20389;-88
2021/07/22 03:29:18;;;;;;;19.80;14.80;;;;;;;;;;5112881;28;20370;-87
2021/07/22 03:31:44;;;;;;;18.60;15.40;;;;;;;;;;5095515;28;20371;-91
2021/07/22 03:34:10;;;;;;;17.73;15.10;;;;;;;;;;5095207;28;20375;-89
2021/07/22 03:36:36;;;;;;;16.65;14.85;;;;;;;;;;5094890;28;20399;-87
2021/07/22 03:39:02;;;;;;;19.42;15.43;;;;;;;;;;5094863;28;20402;-89
2021/07/22 03:41:28;;;;;;;16.83;14.38;;;;;;;;;;5094976;28;20481;-89
2021/07/22 03:43:54;;;;;;;16.27;14.07;;;;;;;;;;5094474;28;20381;-87
2021/07/22 03:46:20;;;;;;;15.73;13.98;;;;;;;;;;5094139;28;20418;-88
2021/07/22 03:48:46;;;;;;;16.38;13.55;;;;;;;;;;5094848;28;20899;-85
2021/07/22 03:51:12;;;;;;;16.95;13.63;;;;;;;;;;5094462;28;20868;-87
2021/07/22 03:53:38;;;;;;;17.20;13.73;;;;;;;;;;5095309;28;20408;-87
2021/07/22 03:56:04;;;;;;;20.83;14.27;;;;;;;;;;5094375;28;20901;-86
2021/07/22 03:58:30;;;;;;;21.95;14.50;;;;;;;;;;5094673;28;20375;-89
2021/07/22 04:00:59;;;;;;;24.67;13.85;;;;;;;;;;5094186;28;20806;-86
2021/07/22 04:03:25;;;;;;;15.75;13.30;;;;;;;;;;5093969;28;20398;-88
2021/07/22 04:05:51;;;;;;;21.08;13.40;;;;;;;;;;5093700;28;20378;-90
2021/07/22 04:08:18;;;;;;;15.10;13.50;;;;;;;;;;5093757;28;20838;-87
2021/07/22 04:10:44;;;;;;;21.63;14.73;;;;;;;;;;5093885;28;20888;-89
2021/07/22 04:13:10;;;;;;;24.95;13.55;;;;;;;;;;5111787;28;20374;-85
2021/07/22 04:15:36;;;;;;;23.15;14.65;;;;;;;;;;5102729;28;20355;-84
2021/07/22 04:18:02;;;;;;;30.50;15.40;;;;;;;;;;5101886;28;20401;-89
2021/07/22 04:20:28;;;;;;;17.13;13.20;;;;;;;;;;5102046;28;20471;-87
2021/07/22 04:22:58;;;;;;;17.33;12.93;;;;;;;;;;5100647;28;20737;-87
2021/07/22 04:25:24;;;;;;;19.03;13.07;;;;;;;;;;5101332;28;20367;-87
2021/07/22 04:27:50;;;;;;;27.67;15.73;;;;;;;;;;5100241;28;20375;-85
2021/07/22 04:30:16;;;;;;;19.55;16.40;;;;;;;;;;5099834;28;20735;-89
2021/07/22 04:32:46;;;;;;;24.67;15.68;;;;;;;;;;5101613;28;20469;-91
2021/07/22 04:35:12;;;;;;;31.17;16.90;;;;;;;;;;5118582;28;20398;-87
2021/07/22 04:37:38;;;;;;;22.33;15.95;;;;;;;;;;5118757;28;20504;-89
2021/07/22 04:40:06;;;;;;;35.63;16.40;;;;;;;;;;5098883;28;20939;-88
2021/07/22 04:42:33;;;;;;;30.23;16.17;;;;;;;;;;5099828;28;20378;-89
2021/07/22 04:44:59;;;;;;;32.83;16.40;;;;;;;;;;5099110;28;20363;-90
2021/07/22 04:47:25;;;;;;;32.15;16.05;;;;;;;;;;5097960;28;20384;-87
2021/07/22 04:49:51;;;;;;;19.97;15.10;;;;;;;;;;5097428;28;20419;-87
2021/07/22 04:52:16;;;;;;;20.05;15.80;;;;;;;;;;5097891;28;20933;-86
2021/07/22 04:54:42;;;;;;;19.77;15.07;;;;;;;;;;5097650;28;20482;-88
2021/07/22 04:57:08;;;;;;;22.65;16.83;;;;;;;;;;5115130;28;20378;-88
2021/07/22 04:59:34;;;;;;;20.70;16.52;;;;;;;;;;5096462;28;20778;-88
2021/07/22 05:02:00;;;;;;;17.77;15.38;;;;;;;;;;5095955;28;20383;-87
2021/07/22 05:04:26;;;;;;;18.60;15.73;;;;;;;;;;5114271;28;20381;-86
2021/07/22 05:06:52;;;;;;;17.88;15.40;;;;;;;;;;5096024;28;20848;-86
2021/07/22 05:09:18;;;;;;;18.33;15.52;;;;;;;;;;5096192;28;20773;-86
2021/07/22 05:11:44;;;;;;;17.65;15.70;;;;;;;;;;5114151;28;20388;-87
2021/07/22 05:14:10;;;;;;;18.38;15.35;;;;;;;;;;5095973;28;20371;-86
2021/07/22 05:16:36;;;;;;;62.20;19.33;;;;;;;;;;5113884;28;20516;-87
2021/07/22 05:19:02;;;;;;;128.23;25.30;;;;;;;;;;5113903;28;20370;-86
2021/07/22 05:21:28;;;;;;;43.15;17.77;;;;;;;;;;5113648;28;20394;-86
2021/07/22 05:23:54;;;;;;;27.40;17.00;;;;;;;;;;5095957;28;20867;-88
2021/07/22 05:26:20;;;;;;;33.92;17.60;;;;;;;;;;5095487;28;20385;-86
2021/07/22 05:28:46;;;;;;;29.63;18.02;;;;;;;;;;5113310;28;20723;-87
2021/07/22 05:31:12;;;;;;;25.93;16.73;;;;;;;;;;5095446;28;20450;-87
2021/07/22 05:33:39;;;;;;;23.73;17.15;;;;;;;;;;5095113;28;20935;-86
2021/07/22 05:36:06;;;;;;;22.13;17.05;;;;;;;;;;5095130;28;20374;-86
2021/07/22 05:38:32;;;;;;;20.27;16.85;;;;;;;;;;5095499;28;20755;-87
2021/07/22 05:40:59;;;;;;;23.63;17.00;;;;;;;;;;5095272;28;20459;-87
2021/07/22 05:43:26;;;;;;;21.60;17.33;;;;;;;;;;5095316;28;20740;-86
2021/07/22 05:45:52;;;;;;;19.05;16.90;;;;;;;;;;5113658;28;20450;-86
2021/07/22 05:48:18;;;;;;;19.07;15.97;;;;;;;;;;5113319;28;20466;-86
2021/07/22 05:50:44;;;;;;;20.75;17.25;;;;;;;;;;5095443;28;20435;-85
2021/07/22 05:53:10;;;;;;;24.45;18.65;;;;;;;;;;5095544;28;20377;-86
2021/07/22 05:55:36;;;;;;;19.80;17.13;;;;;;;;;;5095743;28;20371;-89
2021/07/22 05:58:02;;;;;;;19.77;17.50;;;;;;;;;;5095503;28;20383;-88
2021/07/22 06:00:28;;;;;;;19.17;16.38;;;;;;;;;;5096246;28;20459;-88
2021/07/22 06:02:54;;;;;;;19.65;17.48;;;;;;;;;;5094934;28;20367;-86
2021/07/22 06:05:20;;;;;;;18.80;16.77;;;;;;;;;;5094811;28;20503;-88
2021/07/22 06:07:46;;;;;;;19.15;16.48;;;;;;;;;;5094778;28;20505;-87
2021/07/22 06:10:13;;;;;;;19.58;17.10;;;;;;;;;;5094831;28;20374;-84
2021/07/22 06:12:40;;;;;;;20.93;16.83;;;;;;;;;;5095217;28;20367;-89
2021/07/22 06:15:06;;;;;;;19.42;15.98;;;;;;;;;;5094680;28;20386;-86
2021/07/22 06:17:34;;;;;;;19.25;16.83;;;;;;;;;;5112821;28;20378;-85
2021/07/22 06:20:00;;;;;;;18.77;16.35;;;;;;;;;;5094522;28;20418;-90
2021/07/22 06:22:26;;;;;;;17.60;15.70;;;;;;;;;;5094717;28;20871;-90
2021/07/22 06:24:52;;;;;;;19.33;15.32;;;;;;;;;;5095125;28;20375;-86
2021/07/22 06:27:18;;;;;;;30.42;16.38;;;;;;;;;;5112801;28;20375;-90
2021/07/22 06:29:44;;;;;;;29.10;15.80;;;;;;;;;;5094468;28;20442;-92
2021/07/22 06:32:10;;;;;;;23.83;14.70;;;;;;;;;;5113027;28;20374;-86
2021/07/22 06:34:36;;;;;;;22.75;15.25;;;;;;;;;;5094497;28;20366;-89
2021/07/22 06:37:02;;;;;;;16.92;14.07;;;;;;;;;;5094396;28;20432;-88
2021/07/22 06:39:32;;;;;;;15.93;14.20;;;;;;;;;;5094378;28;20371;-90
2021/07/22 06:41:59;;;;;;;15.40;13.38;;;;;;;;;;5094314;28;20860;-87
2021/07/22 06:44:25;;;;;;;15.98;13.82;;;;;;;;;;5094425;28;20367;-87
2021/07/22 06:46:51;;;;;;;15.02;13.40;;;;;;;;;;5093124;28;20739;-90
2021/07/22 06:49:17;;;;;;;18.05;14.07;;;;;;;;;;5094687;28;20378;-86
2021/07/22 06:51:43;;;;;;;15.43;13.03;;;;;;;;;;5113015;28;20374;-86
2021/07/22 06:54:10;;;;;;;14.77;13.18;;;;;;;;;;5082895;28;20388;-88
2021/07/22 06:56:36;;;;;;;17.00;14.77;;;;;;;;;;5088236;28;20764;-87
2021/07/22 06:59:02;;;;;;;17.67;14.50;;;;;;;;;;5093412;28;20378;-86
2021/07/22 07:01:28;;;;;;;16.80;14.77;;;;;;;;;;5074139;28;20393;-87
2021/07/22 07:03:54;;;;;;;16.27;14.52;;;;;;;;;;5092514;28;20920;-90
2021/07/22 07:06:20;;;;;;;16.17;14.57;;;;;;;;;;5073916;28;20369;-85
2021/07/22 07:08:46;;;;;;;15.90;14.20;;;;;;;;;;5074020;28;20376;-89
2021/07/22 07:11:12;;;;;;;15.90;14.35;;;;;;;;;;5074585;28;20612;-88
2021/07/22 07:13:38;;;;;;;17.95;14.77;;;;;;;;;;5095050;28;20367;-86
2021/07/22 07:16:07;;;;;;;16.88;13.18;;;;;;;;;;5093740;28;20956;-89
2021/07/22 07:18:34;;;;;;;14.82;13.32;;;;;;;;;;5094213;28;20379;-88
2021/07/22 07:21:03;;;;;;;14.98;13.48;;;;;;;;;;5094020;28;20402;-86
2021/07/22 07:23:30;;;;;;;16.70;13.60;;;;;;;;;;5093535;28;20374;-85
2021/07/22 07:25:56;;;;;;;17.23;14.38;;;;;;;;;;5093104;28;20462;-85
2021/07/22 07:28:22;;;;;;;17.70;14.63;;;;;;;;;;5111937;28;20458;-85
2021/07/22 07:30:48;;;;;;;15.80;14.10;;;;;;;;;;5093951;28;20363;-86
2021/07/22 07:33:14;;;;;;;15.45;13.43;;;;;;;;;;5094279;28;20367;-88
2021/07/22 07:35:41;;;;;;;15.45;13.70;;;;;;;;;;5093839;28;20720;-85
2021/07/22 07:38:07;;;;;;;18.90;12.80;;;;;;;;;;5094502;28;20378;-88
2021/07/22 07:40:33;;;;;;;18.67;13.18;;;;;;;;;;5093467;28;20391;-89
2021/07/22 07:42:59;;;;;;;13.68;11.93;;;;;;;;;;5111816;28;20375;-87
2021/07/22 07:45:26;;;;;;;13.60;12.15;;;;;;;;;;5093686;28;20538;-86
2021/07/22 07:47:53;;;;;;;17.58;11.75;;;;;;;;;;5109296;28;20370;-89
2021/07/22 07:50:19;;;;;;;14.95;11.57;;;;;;;;;;5091685;28;20854;-87
2021/07/22 07:52:46;;;;;;;13.82;11.52;;;;;;;;;;5072472;28;20387;-85
2021/07/22 07:55:13;;;;;;;21.95;13.07;;;;;;;;;;5089715;28;20379;-88
2021/07/22 07:57:39;;;;;;;14.48;11.52;;;;;;;;;;5092076;28;20379;-86
2021/07/22 08:00:05;;;;;;;11.82;10.57;;;;;;;;;;5091658;28;20393;-88
2021/07/22 08:02:32;;;;;;;13.32;9.55;;;;;;;;;;5092440;28;20366;-88
2021/07/22 08:04:58;;;;;;;12.95;10.52;;;;;;;;;;5092597;28;20370;-87
2021/07/22 08:07:25;;;;;;;13.65;10.48;;;;;;;;;;5093539;28;20861;-87
2021/07/22 08:09:51;;;;;;;10.98;9.88;;;;;;;;;;5094105;28;20386;-88
2021/07/22 08:12:20;;;;;;;12.50;9.85;;;;;;;;;;5111646;28;20374;-86
2021/07/22 08:14:47;;;;;;;12.27;9.68;;;;;;;;;;5093382;28;20379;-90
2021/07/22 08:17:17;;;;;;;14.48;9.98;;;;;;;;;;5089667;28;21410;-87
2021/07/22 08:19:43;;;;;;;13.30;10.80;;;;;;;;;;5089796;28;20888;-87
2021/07/22 08:22:11;;;;;;;12.50;10.50;;;;;;;;;;5089472;28;20526;-88
2021/07/22 08:24:41;;;;;;;14.43;9.90;;;;;;;;;;5090108;28;20973;-87
2021/07/22 08:27:07;;;;;;;13.07;10.18;;;;;;;;;;5090307;28;20390;-89
2021/07/22 08:29:38;;;;;;;13.10;10.88;;;;;;;;;;5090843;28;20378;-88
2021/07/22 08:32:04;;;;;;;12.48;10.35;;;;;;;;;;5090937;28;20375;-88
2021/07/22 08:34:30;;;;;;;14.48;10.48;;;;;;;;;;5089518;28;20444;-88
2021/07/22 08:36:56;;;;;;;12.70;10.80;;;;;;;;;;5089549;28;20815;-88
2021/07/22 08:39:22;;;;;;;14.57;10.37;;;;;;;;;;5089976;28;20382;-87
2021/07/22 08:41:48;;;;;;;12.93;10.05;;;;;;;;;;5090992;28;20383;-89
2021/07/22 08:44:14;;;;;;;15.70;10.57;;;;;;;;;;5109008;28;20363;-87
2021/07/22 08:46:45;;;;;;;12.05;10.23;;;;;;;;;;5090123;28;20375;-87
2021/07/22 08:49:12;;;;;;;12.00;10.15;;;;;;;;;;5108152;28;20730;-86
2021/07/22 08:51:44;;;;;;;12.68;9.75;;;;;;;;;;5096015;28;20379;-87
2021/07/22 08:54:10;;;;;;;11.25;9.10;;;;;;;;;;5110963;28;20359;-87
2021/07/22 08:56:36;;;;;;;11.88;10.05;;;;;;;;;;5093655;28;20403;-86
2021/07/22 08:59:02;;;;;;;11.20;9.90;;;;;;;;;;5098026;28;20382;-86
2021/07/22 09:01:32;;;;;;;11.55;9.60;;;;;;;;;;5115000;28;20872;-86
2021/07/22 09:03:59;;;;;;;10.75;9.65;;;;;;;;;;5096087;28;20378;-89
2021/07/22 09:06:25;;;;;;;10.65;9.48;;;;;;;;;;5099182;28;20446;-87
2021/07/22 09:08:51;;;;;;;12.40;9.73;;;;;;;;;;5096881;28;20410;-86
2021/07/22 09:11:17;;;;;;;12.60;10.00;;;;;;;;;;5122078;27;20378;-86
2021/07/22 09:13:43;;;;;;;11.50;9.50;;;;;;;;;;5100086;28;20407;-90
2021/07/22 09:16:09;;;;;;;10.85;9.75;;;;;;;;;;5112517;28;20413;-89
2021/07/22 09:18:43;;;;;;;13.85;10.30;;;;;;;;;;5094540;28;20399;-89
2021/07/22 09:21:24;;;;;;;11.70;9.77;;;;;;;;;;5093631;28;20890;-86
2021/07/22 09:24:06;;;;;;;13.65;9.82;;;;;;;;;;5093389;28;20385;-93
2021/07/22 09:26:33;;;;;;;14.87;9.87;;;;;;;;;;5093850;28;20424;-90
2021/07/22 09:29:09;;;;;;;13.43;9.80;;;;;;;;;;5112178;28;20370;-91
2021/07/22 09:31:35;;;;;;;12.43;9.73;;;;;;;;;;5112421;28;20363;-88
2021/07/22 09:34:01;;;;;;;10.90;9.82;;;;;;;;;;5092451;28;20470;-86
2021/07/22 09:36:27;;;;;;;11.20;9.93;;;;;;;;;;5092959;28;20431;-88
2021/07/22 09:38:54;;;;;;;13.35;9.82;;;;;;;;;;5092366;28;20402;-86
2021/07/22 09:41:20;;;;;;;11.77;10.30;;;;;;;;;;5092806;28;20887;-87
2021/07/22 09:43:46;;;;;;;12.02;9.60;;;;;;;;;;5092967;28;20435;-88
2021/07/22 09:46:14;;;;;;;12.32;10.00;;;;;;;;;;5093592;28;20404;-88
2021/07/22 09:49:01;;;;;;;12.03;9.67;;;;;;;;;;5092048;28;20868;-90
2021/07/22 09:51:33;;;;;;;11.82;9.48;;;;;;;;;;5091549;28;20389;-88
2021/07/22 09:54:11;;;;;;;14.82;10.38;;;;;;;;;;5092087;28;20382;-87
2021/07/22 09:56:39;;;;;;;13.02;9.82;;;;;;;;;;5110377;28;20367;-88
2021/07/22 09:59:08;;;;;;;14.18;10.43;;;;;;;;;;5092899;28;20832;-86
2021/07/22 10:01:42;;;;;;;14.18;10.40;;;;;;;;;;5091731;28;20412;-87
2021/07/22 10:04:09;;;;;;;14.25;10.00;;;;;;;;;;5091376;28;20367;-87
2021/07/22 10:06:41;;;;;;;12.98;10.10;;;;;;;;;;5093195;28;20367;-89
2021/07/22 10:09:08;;;;;;;12.77;9.70;;;;;;;;;;5094057;28;20424;-88
2021/07/22 10:11:35;;;;;;;14.87;10.10;;;;;;;;;;5092656;28;20860;-87
2021/07/22 10:14:02;;;;;;;11.77;9.70;;;;;;;;;;5092033;28;20408;-87
2021/07/22 10:16:31;;;;;;;9.98;8.65;;;;;;;;;;5093066;28;20371;-86
2021/07/22 10:18:59;;;;;;;14.55;9.63;;;;;;;;;;5093674;28;20387;-88
2021/07/22 10:21:25;;;;;;;13.57;9.90;;;;;;;;;;5113037;28;20430;-87
2021/07/22 10:23:53;;;;;;;14.10;9.18;;;;;;;;;;5094667;28;20371;-87
2021/07/22 10:26:24;;;;;;;11.60;9.32;;;;;;;;;;5095078;28;20483;-89
2021/07/22 10:28:50;;;;;;;9.70;8.48;;;;;;;;;;5108079;28;20382;-89
2021/07/22 10:31:16;;;;;;;12.25;8.70;;;;;;;;;;5097735;28;20366;-86
2021/07/22 10:33:44;;;;;;;12.20;8.98;;;;;;;;;;5083641;28;20381;-86
2021/07/22 10:36:19;;;;;;;14.27;9.18;;;;;;;;;;5098044;28;20376;-89
2021/07/22 10:38:49;;;;;;;11.13;9.03;;;;;;;;;;5072813;28;20376;-86
2021/07/22 10:41:39;;;;;;;12.43;8.65;;;;;;;;;;5090597;28;20406;-88
2021/07/22 10:44:31;;;;;;;13.82;8.45;;;;;;;;;;5070218;28;20426;-87
2021/07/22 10:46:58;;;;;;;14.05;9.05;;;;;;;;;;5083194;28;20382;-90
2021/07/22 10:49:37;;;;;;;11.25;8.60;;;;;;;;;;5087501;28;20879;-87
2021/07/22 10:52:04;;;;;;;11.13;8.75;;;;;;;;;;5077778;28;20463;-89
2021/07/22 10:54:39;;;;;;;14.55;9.30;;;;;;;;;;5079885;28;20397;-87
2021/07/22 10:57:05;;;;;;;12.55;9.10;;;;;;;;;;5076879;28;20487;-87
2021/07/22 10:59:50;;;;;;;13.52;9.70;;;;;;;;;;5077044;28;20372;-85
2021/07/22 11:02:35;;;;;;;14.52;9.57;;;;;;;;;;5100840;28;20418;-86
2021/07/22 11:05:01;;;;;;;12.57;10.10;;;;;;;;;;5097109;28;20394;-88
2021/07/22 11:07:28;;;;;;;11.00;9.90;;;;;;;;;;5085010;28;20442;-88
2021/07/22 11:09:57;;;;;;;13.40;10.23;;;;;;;;;;5079190;28;20392;-90
2021/07/22 11:12:39;;;;;;;12.88;10.68;;;;;;;;;;5099299;28;20390;-88
2021/07/22 11:15:06;;;;;;;11.88;9.95;;;;;;;;;;5077180;28;20392;-91
2021/07/22 11:17:33;;;;;;;13.43;10.40;;;;;;;;;;5076662;28;20447;-89
2021/07/22 11:20:18;;;;;;;15.07;10.48;;;;;;;;;;5081715;28;20426;-90
2021/07/22 11:22:48;;;;;;;13.20;10.47;;;23.50;99.90;;;;;;5083910;28;20736;-87
2021/07/22 11:25:15;;;;;;;14.70;11.07;;;23.50;99.90;;;;;;5082902;28;20754;-90
2021/07/22 11:27:44;;;;;;;11.77;9.65;;;23.40;99.90;;;;;;5082700;28;20406;-87
2021/07/22 11:30:11;;;;;;;14.40;10.37;;;23.50;99.90;;;;;;5084616;28;20426;-89
2021/07/22 11:32:37;;;;;;;11.65;10.40;;;23.40;99.90;;;;;;5083044;28;20376;-87
2021/07/22 11:35:03;;;;;;;12.55;10.20;;;23.40;99.90;;;;;;5080781;28;20786;-89
2021/07/22 11:37:29;;;;;;;14.35;10.95;;;23.50;99.90;;;;;;5083428;28;20362;-89
2021/07/22 11:39:56;;;;;;;14.00;10.40;;;23.60;99.90;;;;;;5085531;28;20409;-88
2021/07/22 11:42:24;;;;;;;15.05;10.60;;;23.60;99.90;;;;;;5103318;28;20375;-84
2021/07/22 11:45:06;;;;;;;14.30;11.25;;;23.70;99.90;;;;;;5080536;28;20925;-91
2021/07/22 11:47:33;;;;;;;12.40;11.13;;;23.50;99.90;;;;;;5107042;28;20425;-87
2021/07/22 11:49:59;;;;;;;16.70;11.45;;;23.40;99.90;;;;;;5086981;28;20485;-87
2021/07/22 11:52:28;;;;;;;14.40;10.93;;;23.50;99.90;;;;;;5088874;28;20461;-87
2021/07/22 11:55:10;;;;;;;14.55;10.55;;;23.80;99.90;;;;;;5089090;28;20422;-88
2021/07/22 11:57:40;;;;;;;15.43;10.90;;;23.80;99.90;;;;;;5089041;28;20394;-85
2021/07/22 12:00:20;;;;;;;13.55;11.35;;;24.00;99.90;;;;;;5089113;28;20478;-88
2021/07/22 12:02:52;;;;;;;14.82;10.93;;;24.10;99.90;;;;;;5088263;28;20433;-88
2021/07/22 12:05:27;;;;;;;13.18;10.50;;;24.20;99.90;;;;;;5089222;28;20387;-89
2021/07/22 12:07:58;;;;;;;14.38;10.88;;;24.50;99.90;;;;;;5088116;28;20389;-87
2021/07/22 12:10:31;;;;;;;14.30;11.55;;;24.50;99.90;;;;;;5088253;28;20381;-87
2021/07/22 12:12:58;;;;;;;14.50;10.90;;;24.40;99.90;;;;;;5084185;28;20380;-86
2021/07/22 12:15:26;;;;;;;15.75;12.27;;;24.40;99.90;;;;;;5095004;28;20380;-86
2021/07/22 12:17:52;;;;;;;15.40;12.30;;;24.40;99.90;;;;;;5081482;28;20391;-87
2021/07/22 12:20:25;;;;;;;15.10;11.67;;;24.50;99.90;;;;;;5080734;28;20424;-87
2021/07/22 12:22:51;;;;;;;13.90;11.70;;;24.60;99.90;;;;;;5086513;28;20477;-89
2021/07/22 12:25:17;;;;;;;15.93;11.83;;;24.60;99.90;;;;;;5087207;28;20461;-89
2021/07/22 12:27:54;;;;;;;16.65;12.38;;;24.60;99.90;;;;;;5082263;28;20401;-86
2021/07/22 12:30:24;;;;;;;17.48;11.95;;;24.60;99.90;;;;;;5080964;28;21278;-89
2021/07/22 12:33:04;;;;;;;14.77;10.98;;;24.70;99.90;;;;;;5085112;28;20422;-90
2021/07/22 12:35:39;;;;;;;15.30;11.57;;;24.80;99.90;;;;;;5083851;28;20387;-87
2021/07/22 12:38:10;;;;;;;19.13;11.63;;;24.80;99.90;;;;;;5084324;28;20387;-88
2021/07/22 12:40:48;;;;;;;15.32;11.23;;;24.90;99.90;;;;;;5083471;28;20406;-89
2021/07/22 12:43:18;;;;;;;13.57;11.05;;;24.90;99.90;;;;;;5088295;28;20379;-89
2021/07/22 12:45:46;;;;;;;13.95;11.18;;;25.00;99.90;;;;;;5095082;28;20389;-88
2021/07/22 12:48:12;;;;;;;14.88;11.90;;;25.10;99.90;;;;;;5091555;28;20376;-89
2021/07/22 12:50:43;;;;;;;15.52;11.18;;;25.20;99.90;;;;;;5082091;28;20786;-89
2021/07/22 12:53:33;;;;;;;17.00;11.43;;;25.50;99.90;;;;;;5084360;28;20387;-91
2021/07/22 12:55:59;;;;;;;14.85;11.48;;;25.60;99.90;;;;;;5082722;28;20391;-88
2021/07/22 12:58:27;;;;;;;15.38;11.05;;;25.80;99.90;;;;;;5093172;28;20400;-89
2021/07/22 13:01:07;;;;;;;14.37;11.27;;;26.00;99.90;;;;;;5089474;28;20401;-88
2021/07/22 13:03:34;;;;;;;14.30;10.93;;;26.20;99.90;;;;;;5083109;28;20383;-90
2021/07/22 13:06:00;;;;;;;15.10;11.13;;;26.30;99.90;;;;;;5100951;28;20371;-89
2021/07/22 13:08:26;;;;;;;17.27;12.15;;;26.40;99.90;;;;;;5087598;28;20466;-87
2021/07/22 13:10:53;;;;;;;16.80;12.57;;;26.40;99.90;;;;;;5087088;28;20463;-88
2021/07/22 13:13:18;;;;;;;14.52;12.05;;;26.40;99.90;;;;;;5085649;28;20805;-88
2021/07/22 13:15:44;;;;;;;19.47;12.50;;;26.50;99.90;;;;;;5102897;28;20453;-88
2021/07/22 13:18:10;;;;;;;15.87;12.10;;;26.40;99.90;;;;;;5086575;28;20374;-89
2021/07/22 13:20:37;;;;;;;12.82;11.52;;;26.40;99.90;;;;;;5087591;28;20395;-85
2021/07/22 13:23:03;;;;;;;19.48;11.40;;;26.30;99.90;;;;;;5086491;28;20403;-88
2021/07/22 13:25:29;;;;;;;15.00;11.37;;;26.30;99.90;;;;;;5084356;28;20898;-88
2021/07/22 13:27:54;;;;;;;12.85;10.82;;;26.30;99.90;;;;;;5085143;28;20367;-88
2021/07/22 13:30:20;;;;;;;14.23;10.73;;;26.30;99.90;;;;;;5085971;28;20387;-86
2021/07/22 13:32:47;;;;;;;14.02;10.70;;;26.20;99.90;;;;;;5084422;28;20373;-89
2021/07/22 13:35:15;;;;;;;11.63;10.43;;;26.20;99.90;;;;;;5085496;28;20374;-88
2021/07/22 13:37:42;;;;;;;10.82;9.65;;;26.20;99.90;;;;;;5103899;28;20376;-85
2021/07/22 13:40:09;;;;;;;13.00;10.45;;;26.30;99.90;;;;;;5101835;28;20430;-89
2021/07/22 13:42:36;;;;;;;16.08;11.27;;;26.30;99.90;;;;;;5085170;28;20386;-88
2021/07/22 13:45:02;;;;;;;14.73;11.32;;;26.30;99.90;;;;;;5083981;28;20407;-89
2021/07/22 13:47:27;;;;;;;16.65;10.93;;;26.30;99.90;;;;;;5087515;28;20408;-88
2021/07/22 13:49:53;;;;;;;12.48;11.15;;;26.20;99.90;;;;;;5080085;28;20451;-88
2021/07/22 13:52:24;;;;;;;13.23;11.73;;;26.00;99.90;;;;;;5096637;28;20930;-88
2021/07/22 13:54:52;;;;;;;16.35;11.73;;;25.80;99.90;;;;;;5083486;28;21340;-90
2021/07/22 13:57:17;;;;;;;17.45;11.90;;;25.60;99.90;;;;;;5083646;28;20398;-88
2021/07/22 13:59:43;;;;;;;16.17;11.97;;;25.50;99.90;;;;;;5081734;28;20382;-86